Gaz Venezia — 3FVT5 — position and weather

sailwx.info

Track history (hours):
 
Tides and Currents Weather Stations Pressure Air Temp Water Temp Dewpoint Dewpoint Depression Visibility Wind Speed Wind Dir Waves Ship Positions

Gaz Venezia

Last reported at 2018-Jun-12 15:21 UTC. Time now 2018-Jun-18 03:41 UTC.
Position N 35°49' E 014°54'.

Length 112 m; draft 6.5 m.

Type: Ship (hazmat cat C). MMSI: 354262000.

Date/timePositionNaut miles runAvg speedWind from/ knotsBaromVisibWave heightAir tempDewpointWater temp
2018-Jun-12 15:21N 35°49' E 014°54'0 0.0
2018-Jun-12 15:00N 35°49' E 014°54'0 0.0
2018-Jun-12 14:28N 35°49' E 014°54'0 0.0
2018-Jun-12 13:59N 35°49' E 014°54'0 0.0
2018-Jun-12 13:29N 35°49' E 014°54'0 0.0
2018-Jun-12 12:59N 35°49' E 014°54'0 0.0
2018-Jun-12 12:29N 35°49' E 014°54'0 0.0
2018-Jun-12 11:49N 35°49' E 014°54'0 0.0
2018-Jun-12 11:28N 35°49' E 014°54'0 0.0
2018-Jun-12 10:58N 35°49' E 014°54'0 0.1
2018-Jun-12 10:28N 35°49' E 014°54'0 0.0
2018-Jun-12 09:58N 35°49' E 014°54'0 0.0
2018-Jun-12 09:28N 35°49' E 014°54'0 0.0
2018-Jun-12 08:58N 35°49' E 014°54'0 0.0
2018-Jun-12 08:25N 35°49' E 014°54'0 0.0
2018-Jun-12 07:22N 35°49' E 014°54'0 0.0
2018-Jun-12 02:52N 35°49' E 014°54'0 0.1
2018-Jun-12 02:28N 35°49' E 014°54'0 0.0
2018-Jun-12 01:58N 35°49' E 014°54'0 0.0
2018-Jun-12 01:28N 35°49' E 014°54'0 0.0
2018-Jun-12 00:58N 35°49' E 014°54'0 0.0
2018-Jun-12 00:25N 35°49' E 014°54'0 0.0
2018-Jun-11 23:58N 35°49' E 014°54'0 0.0
2018-Jun-11 23:28N 35°49' E 014°54'0 0.0
2018-Jun-11 22:55N 35°49' E 014°54'0 0.0
2018-Jun-11 22:01N 35°49' E 014°54'0 0.0
2018-Jun-11 21:58N 35°49' E 014°54'0 0.0
2018-Jun-11 21:28N 35°49' E 014°54'0 0.0
2018-Jun-11 20:58N 35°49' E 014°54'0 0.0
2018-Jun-11 20:30N 35°49' E 014°54'0 0.0
2018-Jun-11 20:00N 35°49' E 014°54'0 0.0
2018-Jun-11 19:30N 35°49' E 014°54'0 0.0
2018-Jun-11 18:51N 35°49' E 014°54'0 0.0
2018-Jun-11 18:30N 35°49' E 014°54'0 0.0
2018-Jun-11 17:57N 35°49' E 014°54'0 0.0
2018-Jun-11 17:27N 35°49' E 014°54'0 0.0
2018-Jun-11 17:00N 35°49' E 014°54'0 0.0
2018-Jun-11 16:29N 35°49' E 014°54'0 0.1
2018-Jun-11 15:59N 35°49' E 014°54'0 0.5
2018-Jun-11 15:30N 35°49' E 014°54'510.0
2018-Jun-11 15:00N 35°51' E 014°48'2 0.7
2018-Jun-11 11:52N 35°52' E 014°46'0 0.0
2018-Jun-11 11:19N 35°52' E 014°46'0 0.1
2018-Jun-11 10:55N 35°52' E 014°46'0 0.1
2018-Jun-11 10:28N 35°52' E 014°46'0 0.1
2018-Jun-11 09:57N 35°52' E 014°46'0 0.0
2018-Jun-11 09:18N 35°52' E 014°46'0 0.0
2018-Jun-11 08:16N 35°52' E 014°46'0 0.1
2018-Jun-11 07:58N 35°52' E 014°46'0 0.0
2018-Jun-11 07:16N 35°52' E 014°46'0 0.0
2018-Jun-11 06:55N 35°52' E 014°46'0 0.0
2018-Jun-11 06:20N 35°52' E 014°46'0 0.0
2018-Jun-11 06:00N 35°52' E 014°46'  
2018-Jun-07 13:01N 34°20' E 033°03'111.5
2018-Jun-07 12:55N 34°20' E 033°05'611.6
2018-Jun-07 12:25N 34°20' E 033°11'1312.4
2018-Jun-07 11:21N 34°20' E 033°28'1 0.3
2018-Jun-07 09:09N 34°20' E 033°27'6 0.3
2018-Jun-06 09:09N 34°21' E 033°20'4 0.4
2018-Jun-05 22:28N 34°18' E 033°16'0 0.6
2018-Jun-05 21:54N 34°18' E 033°16'0 0.6
2018-Jun-05 21:30N 34°19' E 033°16'0 0.8
2018-Jun-05 21:00N 34°19' E 033°15'0 0.9
2018-Jun-05 20:31N 34°19' E 033°15'0 1.0
2018-Jun-05 20:00N 34°20' E 033°15'12 4.2
2018-Jun-05 17:04N 34°31' E 033°08'  
Track history (hours):
 
Tides and Currents Weather Stations Pressure Air Temp Water Temp Dewpoint Dewpoint Depression Visibility Wind Speed Wind Dir Waves Ship Positions

Gaz Venezia

Last reported at 2018-Jun-12 15:21 UTC. Time now 2018-Jun-18 03:41 UTC.
Position N 35°49' E 014°54'.

Length 112 m; draft 6.5 m.

Type: Ship (hazmat cat C). MMSI: 354262000.

Date/timePositionNaut miles runAvg speedWind from/ knotsBaromVisibWave heightAir tempDewpointWater temp
2018-Jun-12 15:21N 35°49' E 014°54'0 0.0
2018-Jun-12 15:00N 35°49' E 014°54'0 0.0
2018-Jun-12 14:28N 35°49' E 014°54'0 0.0
2018-Jun-12 13:59N 35°49' E 014°54'0 0.0
2018-Jun-12 13:29N 35°49' E 014°54'0 0.0
2018-Jun-12 12:59N 35°49' E 014°54'0 0.0
2018-Jun-12 12:29N 35°49' E 014°54'0 0.0
2018-Jun-12 11:49N 35°49' E 014°54'0 0.0
2018-Jun-12 11:28N 35°49' E 014°54'0 0.0
2018-Jun-12 10:58N 35°49' E 014°54'0 0.1
2018-Jun-12 10:28N 35°49' E 014°54'0 0.0
2018-Jun-12 09:58N 35°49' E 014°54'0 0.0
2018-Jun-12 09:28N 35°49' E 014°54'0 0.0
2018-Jun-12 08:58N 35°49' E 014°54'0 0.0
2018-Jun-12 08:25N 35°49' E 014°54'0 0.0
2018-Jun-12 07:22N 35°49' E 014°54'0 0.0
2018-Jun-12 02:52N 35°49' E 014°54'0 0.1
2018-Jun-12 02:28N 35°49' E 014°54'0 0.0
2018-Jun-12 01:58N 35°49' E 014°54'0 0.0
2018-Jun-12 01:28N 35°49' E 014°54'0 0.0
2018-Jun-12 00:58N 35°49' E 014°54'0 0.0
2018-Jun-12 00:25N 35°49' E 014°54'0 0.0
2018-Jun-11 23:58N 35°49' E 014°54'0 0.0
2018-Jun-11 23:28N 35°49' E 014°54'0 0.0
2018-Jun-11 22:55N 35°49' E 014°54'0 0.0
2018-Jun-11 22:01N 35°49' E 014°54'0 0.0
2018-Jun-11 21:58N 35°49' E 014°54'0 0.0
2018-Jun-11 21:28N 35°49' E 014°54'0 0.0
2018-Jun-11 20:58N 35°49' E 014°54'0 0.0
2018-Jun-11 20:30N 35°49' E 014°54'0 0.0
2018-Jun-11 20:00N 35°49' E 014°54'0 0.0
2018-Jun-11 19:30N 35°49' E 014°54'0 0.0
2018-Jun-11 18:51N 35°49' E 014°54'0 0.0
2018-Jun-11 18:30N 35°49' E 014°54'0 0.0
2018-Jun-11 17:57N 35°49' E 014°54'0 0.0
2018-Jun-11 17:27N 35°49' E 014°54'0 0.0
2018-Jun-11 17:00N 35°49' E 014°54'0 0.0
2018-Jun-11 16:29N 35°49' E 014°54'0 0.1
2018-Jun-11 15:59N 35°49' E 014°54'0 0.5
2018-Jun-11 15:30N 35°49' E 014°54'510.0
2018-Jun-11 15:00N 35°51' E 014°48'2 0.7
2018-Jun-11 11:52N 35°52' E 014°46'0 0.0
2018-Jun-11 11:19N 35°52' E 014°46'0 0.1
2018-Jun-11 10:55N 35°52' E 014°46'0 0.1
2018-Jun-11 10:28N 35°52' E 014°46'0 0.1
2018-Jun-11 09:57N 35°52' E 014°46'0 0.0
2018-Jun-11 09:18N 35°52' E 014°46'0 0.0
2018-Jun-11 08:16N 35°52' E 014°46'0 0.1
2018-Jun-11 07:58N 35°52' E 014°46'0 0.0
2018-Jun-11 07:16N 35°52' E 014°46'0 0.0
2018-Jun-11 06:55N 35°52' E 014°46'0 0.0
2018-Jun-11 06:20N 35°52' E 014°46'0 0.0
2018-Jun-11 06:00N 35°52' E 014°46'  
2018-Jun-07 13:01N 34°20' E 033°03'111.5
2018-Jun-07 12:55N 34°20' E 033°05'611.6
2018-Jun-07 12:25N 34°20' E 033°11'1312.4
2018-Jun-07 11:21N 34°20' E 033°28'1 0.3
2018-Jun-07 09:09N 34°20' E 033°27'6 0.3
2018-Jun-06 09:09N 34°21' E 033°20'4 0.4
2018-Jun-05 22:28N 34°18' E 033°16'0 0.6
2018-Jun-05 21:54N 34°18' E 033°16'0 0.6
2018-Jun-05 21:30N 34°19' E 033°16'0 0.8
2018-Jun-05 21:00N 34°19' E 033°15'0 0.9
2018-Jun-05 20:31N 34°19' E 033°15'0 1.0
2018-Jun-05 20:00N 34°20' E 033°15'12 4.2
2018-Jun-05 17:04N 34°31' E 033°08'  

Dump ship's entire track history